LIRF

Leonardo da Vinci–Fiumicino Airport

Rome, Italy
TAF LIRF 192300Z 2000/2106 VRB05KT CAVOK BECMG 2011/2013 28010KT BECMG 2017/2019 VRB05KT
Issued Valid From Valid To
Oct-19 @ 23:00 UTC
(4 hours ago)
Oct-20 @ 00:00 UTC
(3 hours ago)
Oct-21 @ 06:00 UTC
(-1 days ago)
Oct-20 @ 00:00 to Oct-20 @ 11:00
TAF LIRF 192300Z 2000/2106 VRB05KT CAVOK
Wind Visibility Clouds Conditions
Variable at 5 knots 10,000+ meters
  • No significant clouds
Becoming Oct-20 @ 11:00 to Oct-20 @ 17:00
BECMG 2011/2013 28010KT
Wind Visibility Clouds Conditions
280° at 10 knots 10,000+ meters
  • No significant clouds
Becoming Oct-20 @ 17:00 to Oct-21 @ 06:00
BECMG 2017/2019 VRB05KT
Wind Visibility Clouds Conditions
Variable at 5 knots 10,000+ meters
  • No significant clouds
TAF LIRF 192300Z 2000/2106 VRB05KT CAVOK BECMG 2011/2013 28010KT BECMG 2017/2019 VRB05KT
Issued Oct-19 @ 23:00 UTC
(4 hours ago)
Valid From Oct-20 @ 00:00 UTC
(3 hours ago)
Valid To Oct-21 @ 06:00 UTC
(-1 days ago)
Oct-20 @ 00:00 - Oct-20 @ 11:00
Wind Visibility
Variable at 5 knots 10,000+ meters
Clouds
  • No significant clouds
Conditions
Becoming Oct-20 @ 11:00 - Oct-20 @ 17:00
Wind Visibility
280° at 10 knots 10,000+ meters
Clouds
  • No significant clouds
Conditions
Becoming Oct-20 @ 17:00 - Oct-21 @ 06:00
Wind Visibility
Variable at 5 knots 10,000+ meters
Clouds
  • No significant clouds
Conditions